Time;durP1;ratioP1;P1;durP2;ratioP2;P2;SDS_P1;SDS_P2;PMS_P1;PMS_P2;Temp;Humidity;BMP_temperature;BMP_pressure;BME280_temperature;BME280_humidity;BME280_pressure;Samples;Min_cycle;Max_cycle;Signal;HPM_P1;HPM_P2
2023/10/06 00:02:31;;;;;;;15.50;5.72;;;;;;;;;;5026759;27;20057;-79
2023/10/06 00:05:05;;;;;;;17.75;7.90;;;;;;;;;;5025910;28;20050;-79
2023/10/06 00:07:36;;;;;;;22.52;10.40;;;;;;;;;;5031247;28;20049;-80
2023/10/06 00:10:21;;;;;;;17.45;9.13;;;;;;;;;;5039208;27;20056;-79
2023/10/06 00:12:54;;;;;;;15.75;8.75;;;;;;;;;;5086655;27;20051;-78
2023/10/06 00:15:39;;;;;;;14.40;7.30;;;;;;;;;;5101103;27;20844;-80
2023/10/06 00:18:16;;;;;;;22.42;8.60;;;;;;;;;;5028460;27;20079;-79
2023/10/06 00:20:49;;;;;;;13.73;7.72;;;;;;;;;;5025618;28;20072;-81
2023/10/06 00:23:21;;;;;;;20.63;9.65;;;;;;;;;;5026825;27;20049;-80
2023/10/06 00:25:58;;;;;;;18.55;10.23;;;;;;;;;;5028765;28;20431;-80
2023/10/06 00:28:32;;;;;;;23.20;10.00;;;;;;;;;;5027877;27;20061;-82
2023/10/06 00:31:09;;;;;;;19.23;9.27;;;;;;;;;;5028352;28;20038;-80
2023/10/06 00:33:42;;;;;;;14.57;6.40;;;;;;;;;;5027752;27;20041;-80
2023/10/06 00:36:18;;;;;;;14.25;6.85;;;;;;;;;;5026898;28;20058;-80
2023/10/06 00:38:51;;;;;;;14.57;5.97;;;;;;;;;;5027462;28;20053;-80
2023/10/06 00:41:22;;;;;;;10.70;5.65;;;;;;;;;;5026747;28;20053;-79
2023/10/06 00:43:52;;;;;;;13.10;6.70;;;;;;;;;;5131852;27;20054;-80
2023/10/06 00:46:23;;;;;;;18.08;8.10;;;;;;;;;;5129705;27;20062;-79
2023/10/06 00:48:56;;;;;;;;;;;;;;;;;;5132587;27;20500;-79
2023/10/06 00:51:28;;;;;;;14.40;7.63;;;;;;;;;;5131982;27;19926;-80
2023/10/06 00:53:59;;;;;;;13.05;6.63;;;;;;;;;;5132092;27;20342;-83
2023/10/06 00:56:31;;;;;;;12.95;7.38;;;;;;;;;;5130821;27;20050;-84
2023/10/06 00:59:04;;;;;;;13.98;6.78;;;;;;;;;;5129866;27;20082;-80
2023/10/06 01:01:34;;;;;;;18.02;7.18;;;;;;;;;;5130173;27;20043;-81
2023/10/06 01:04:11;;;;;;;14.30;6.32;;;;;;;;;;5131961;28;20051;-81
2023/10/06 01:06:43;;;;;;;12.65;7.45;;;;;;;;;;5130561;27;20508;-83
2023/10/06 01:09:15;;;;;;;12.82;5.78;;;;;;;;;;5132205;28;20043;-80
2023/10/06 01:11:46;;;;;;;17.42;7.18;;;;;;;;;;5120951;27;20055;-79
2023/10/06 01:14:27;;;;;;;17.45;7.57;;;;;;;;;;5046322;28;20053;-80
2023/10/06 01:19:48;;;;;;;14.23;8.27;;;;;;;;;;5027219;28;20042;-80
2023/10/06 01:22:27;;;;;;;13.48;6.30;;;;;;;;;;5027256;28;20057;-79
2023/10/06 01:24:59;;;;;;;15.13;7.20;;;;;;;;;;5048672;28;20050;-82
2023/10/06 01:27:29;;;;;;;17.83;7.07;;;;;;;;;;5025175;28;20707;-80
2023/10/06 01:30:17;;;;;;;14.32;6.55;;;;;;;;;;5025180;28;20038;-80
2023/10/06 01:32:51;;;;;;;13.52;6.93;;;;;;;;;;5025566;28;20549;-79
2023/10/06 01:35:23;;;;;;;20.30;6.93;;;;;;;;;;5008031;28;20054;-79
2023/10/06 01:37:58;;;;;;;12.43;7.00;;;;;;;;;;5017594;28;20449;-80
2023/10/06 01:42:59;;;;;;;12.65;6.65;;;;;;;;;;5038165;28;20056;-84
2023/10/06 01:45:29;;;;;;;17.70;7.55;;;;;;;;;;5047254;28;20479;-80
2023/10/06 01:50:48;;;;;;;12.60;6.57;;;;;;;;;;5045530;28;20491;-83
2023/10/06 01:53:18;;;;;;;15.15;6.72;;;;;;;;;;5047363;28;20056;-81
2023/10/06 01:55:52;;;;;;;15.20;7.22;;;;;;;;;;5046878;28;20498;-80
2023/10/06 01:58:22;;;;;;;15.15;7.43;;;;;;;;;;5032063;28;20045;-80
2023/10/06 02:00:52;;;;;;;13.43;7.22;;;;;;;;;;5025128;28;20050;-80
2023/10/06 02:03:23;;;;;;;10.65;7.00;;;;;;;;;;5026799;28;20410;-81
2023/10/06 02:05:59;;;;;;;16.95;7.25;;;;;;;;;;5028664;28;20046;-80
2023/10/06 02:08:31;;;;;;;12.27;6.70;;;;;;;;;;5030590;27;20061;-80
2023/10/06 02:11:01;;;;;;;14.40;7.60;;;;;;;;;;5030689;28;20049;-77
2023/10/06 02:13:32;;;;;;;10.75;6.80;;;;;;;;;;5046113;28;20041;-80
2023/10/06 02:16:03;;;;;;;13.93;7.07;;;;;;;;;;5050429;28;20402;-82
2023/10/06 02:18:37;;;;;;;13.20;7.25;;;;;;;;;;5050277;28;20410;-79
2023/10/06 02:21:14;;;;;;;17.17;7.03;;;;;;;;;;5039854;28;20031;-79
2023/10/06 02:23:46;;;;;;;16.73;7.57;;;;;;;;;;5027461;27;20403;-79
2023/10/06 02:26:17;;;;;;;15.10;6.57;;;;;;;;;;5029009;28;20045;-79
2023/10/06 02:28:51;;;;;;;14.70;7.05;;;;;;;;;;5028502;27;20045;-82
2023/10/06 02:31:23;;;;;;;12.13;6.72;;;;;;;;;;5030183;28;20052;-80
2023/10/06 02:33:54;;;;;;;16.83;7.68;;;;;;;;;;5030122;28;20380;-80
2023/10/06 02:36:25;;;;;;;12.85;7.25;;;;;;;;;;5030623;28;20490;-83
2023/10/06 02:38:55;;;;;;;14.38;7.18;;;;;;;;;;5030344;28;20069;-79
2023/10/06 02:41:27;;;;;;;20.55;7.55;;;;;;;;;;5031221;28;20050;-80
2023/10/06 02:44:15;;;;;;;13.50;6.63;;;;;;;;;;5032022;28;20479;-81
2023/10/06 02:46:45;;;;;;;13.77;6.68;;;;;;;;;;5051037;27;20050;-82
2023/10/06 02:49:24;;;;;;;16.15;7.20;;;;;;;;;;5136454;27;20524;-80
2023/10/06 02:51:54;;;;;;;14.38;7.55;;;;;;;;;;5135236;27;20046;-80
2023/10/06 02:54:27;;;;;;;16.95;7.75;;;;;;;;;;5136022;27;20046;-79
2023/10/06 02:56:59;;;;;;;16.38;8.30;;;;;;;;;;5136748;27;20039;-80
2023/10/06 02:59:34;;;;;;;19.50;8.20;;;;;;;;;;5134271;27;20051;-83
2023/10/06 03:02:15;;;;;;;22.35;7.47;;;;;;;;;;5134641;27;20050;-80
2023/10/06 03:04:49;;;;;;;13.23;7.30;;;;;;;;;;5135975;27;20054;-81
2023/10/06 03:07:23;;;;;;;21.13;7.53;;;;;;;;;;5133810;27;20070;-78
2023/10/06 03:09:54;;;;;;;18.95;7.38;;;;;;;;;;5136065;27;20035;-82
2023/10/06 03:15:00;;;;;;;17.02;8.45;;;;;;;;;;5134308;27;20043;-83
2023/10/06 03:17:34;;;;;;;17.55;7.10;;;;;;;;;;5134644;27;20058;-80
2023/10/06 03:20:10;;;;;;;13.32;7.63;;;;;;;;;;5135689;27;20043;-81
2023/10/06 03:22:43;;;;;;;16.55;7.07;;;;;;;;;;5134011;27;20051;-79
2023/10/06 03:25:17;;;;;;;18.50;7.47;;;;;;;;;;5135614;27;20031;-81
2023/10/06 03:27:54;;;;;;;20.60;7.68;;;;;;;;;;5134086;27;20453;-81
2023/10/06 03:30:33;;;;;;;13.65;6.97;;;;;;;;;;5133782;27;20050;-79
2023/10/06 03:33:05;;;;;;;11.70;6.82;;;;;;;;;;5133551;27;20146;-80
2023/10/06 03:35:45;;;;;;;17.65;6.88;;;;;;;;;;5116978;27;20054;-81
2023/10/06 03:41:07;;;;;;;18.05;7.50;;;;;;;;;;5133695;27;20152;-79
2023/10/06 03:43:49;;;;;;;17.38;7.85;;;;;;;;;;5134105;27;20047;-79
2023/10/06 03:46:22;;;;;;;16.02;7.68;;;;;;;;;;5133734;27;20039;-79
2023/10/06 03:48:52;;;;;;;16.77;7.35;;;;;;;;;;5134008;27;20058;-80
2023/10/06 03:51:22;;;;;;;23.70;7.22;;;;;;;;;;5133526;27;20047;-84
2023/10/06 03:53:53;;;;;;;18.48;7.22;;;;;;;;;;5133492;27;20054;-79
2023/10/06 03:56:23;;;;;;;18.40;7.45;;;;;;;;;;5131153;27;20054;-79
2023/10/06 03:58:54;;;;;;;19.85;7.20;;;;;;;;;;5135036;27;20050;-80
2023/10/06 04:01:27;;;;;;;17.30;6.85;;;;;;;;;;5135197;27;20047;-79
2023/10/06 04:03:58;;;;;;;15.48;6.97;;;;;;;;;;5134921;27;20469;-81
2023/10/06 04:06:35;;;;;;;16.88;7.30;;;;;;;;;;5133645;27;20054;-82
2023/10/06 04:09:05;;;;;;;15.98;7.53;;;;;;;;;;5134812;27;20043;-79
2023/10/06 04:11:36;;;;;;;15.13;6.85;;;;;;;;;;5134977;27;20039;-82
2023/10/06 04:14:06;;;;;;;20.42;7.47;;;;;;;;;;5134357;27;20047;-80
2023/10/06 04:16:44;;;;;;;18.67;7.28;;;;;;;;;;5134917;27;20358;-79
2023/10/06 04:19:17;;;;;;;12.85;7.07;;;;;;;;;;5134775;27;20035;-79
2023/10/06 04:21:49;;;;;;;18.17;7.70;;;;;;;;;;5134454;27;20043;-79
2023/10/06 04:24:19;;;;;;;15.95;7.43;;;;;;;;;;5134695;27;20050;-80
2023/10/06 04:26:49;;;;;;;15.52;7.22;;;;;;;;;;5133828;27;20393;-79
2023/10/06 04:29:19;;;;;;;23.85;7.57;;;;;;;;;;5134454;27;20054;-79
2023/10/06 04:31:49;;;;;;;13.38;7.03;;;;;;;;;;5134547;27;20051;-82
2023/10/06 04:34:22;;;;;;;15.90;6.95;;;;;;;;;;5134163;27;20051;-82
2023/10/06 04:36:56;;;;;;;17.95;7.07;;;;;;;;;;5134736;27;20370;-80
2023/10/06 04:39:27;;;;;;;13.98;6.70;;;;;;;;;;5134459;27;20492;-80
2023/10/06 04:41:59;;;;;;;15.65;7.57;;;;;;;;;;5134697;27;20054;-78
2023/10/06 04:44:29;;;;;;;19.60;7.22;;;;;;;;;;5134319;27;20500;-82
2023/10/06 04:46:59;;;;;;;16.67;6.47;;;;;;;;;;5134635;27;20046;-79
2023/10/06 04:49:31;;;;;;;19.95;6.93;;;;;;;;;;5134360;27;20039;-79
2023/10/06 04:52:01;;;;;;;15.80;7.75;;;;;;;;;;5134917;27;20043;-80
2023/10/06 04:54:30;;;;;;;15.02;7.35;;;;;;;;;;5133993;27;20054;-81
2023/10/06 04:57:00;;;;;;;21.35;8.93;;;;;;;;;;5134055;27;20043;-81
2023/10/06 04:59:32;;;;;;;18.50;6.95;;;;;;;;;;5134700;27;20047;-79
2023/10/06 05:02:02;;;;;;;13.15;7.10;;;;;;;;;;5134024;27;20050;-80
2023/10/06 05:04:32;;;;;;;15.57;7.20;;;;;;;;;;5133711;28;20043;-79
2023/10/06 05:07:03;;;;;;;15.23;7.32;;;;;;;;;;5134776;27;20058;-79
2023/10/06 05:09:33;;;;;;;13.07;6.90;;;;;;;;;;5134066;28;20370;-81
2023/10/06 05:12:04;;;;;;;19.98;7.43;;;;;;;;;;5134332;28;20043;-79
2023/10/06 05:14:34;;;;;;;15.05;6.60;;;;;;;;;;5132947;28;20054;-83
2023/10/06 05:17:05;;;;;;;13.20;6.45;;;;;;;;;;5134017;27;20390;-79
2023/10/06 05:19:35;;;;;;;18.50;6.43;;;;;;;;;;5134036;28;20054;-79
2023/10/06 05:22:05;;;;;;;16.38;7.00;;;;;;;;;;5133675;28;20481;-77
2023/10/06 05:24:35;;;;;;;15.52;8.00;;;;;;;;;;5132321;27;20397;-79
2023/10/06 05:27:05;;;;;;;14.93;7.05;;;;;;;;;;5132515;27;20413;-80
2023/10/06 05:29:36;;;;;;;14.10;7.47;;;;;;;;;;5133710;28;20469;-79
2023/10/06 05:32:06;;;;;;;13.75;7.35;;;;;;;;;;5133985;28;20066;-79
2023/10/06 05:34:40;;;;;;;22.20;7.38;;;;;;;;;;5133663;28;20035;-83
2023/10/06 05:37:12;;;;;;;16.27;7.82;;;;;;;;;;5133850;27;20043;-79
2023/10/06 05:39:42;;;;;;;16.55;7.15;;;;;;;;;;5136339;27;20054;-79
2023/10/06 05:42:12;;;;;;;14.00;7.18;;;;;;;;;;5138199;27;20039;-79
2023/10/06 05:44:43;;;;;;;12.13;6.85;;;;;;;;;;5138197;27;20035;-82
2023/10/06 05:47:13;;;;;;;14.77;6.88;;;;;;;;;;5136081;27;20043;-82
2023/10/06 05:49:47;;;;;;;14.88;6.95;;;;;;;;;;5137249;27;20043;-82
2023/10/06 05:52:20;;;;;;;25.23;7.25;;;;;;;;;;5137844;27;20043;-80
2023/10/06 05:54:50;;;;;;;17.35;7.63;;;;;;;;;;5137603;27;20050;-83
2023/10/06 05:57:21;;;;;;;15.57;7.18;;;;;;;;;;5137591;27;20054;-80
2023/10/06 05:59:53;;;;;;;17.10;8.13;;;;;;;;;;5136306;27;20063;-80
2023/10/06 06:02:25;;;;;;;15.88;7.82;;;;;;;;;;5137778;27;20413;-83
2023/10/06 06:04:57;;;;;;;15.07;7.45;;;;;;;;;;5137269;27;20050;-82
2023/10/06 06:07:28;;;;;;;22.48;7.60;;;;;;;;;;5137174;27;20500;-80
2023/10/06 06:09:58;;;;;;;21.10;7.07;;;;;;;;;;5137514;27;20039;-80
2023/10/06 06:12:28;;;;;;;18.52;7.07;;;;;;;;;;5137559;27;20050;-82
2023/10/06 06:14:59;;;;;;;19.42;8.05;;;;;;;;;;5137282;27;20053;-78
2023/10/06 06:17:29;;;;;;;18.92;7.38;;;;;;;;;;5140222;27;20051;-80
2023/10/06 06:20:00;;;;;;;18.42;8.02;;;;;;;;;;5141861;27;20397;-78
2023/10/06 06:22:53;;;;;;;17.05;7.55;;;;;;;;;;5141342;27;20789;-78
2023/10/06 06:25:23;;;;;;;15.02;7.13;;;;;;;;;;5140752;27;20046;-81
2023/10/06 06:27:54;;;;;;;16.33;7.78;;;;;;;;;;5141118;27;20035;-80
2023/10/06 06:30:25;;;;;;;20.58;7.80;;;;;;;;;;5142165;27;20047;-81
2023/10/06 06:32:55;;;;;;;21.05;7.55;;;;;;;;;;5138044;27;20039;-79
2023/10/06 06:35:26;;;;;;;14.63;7.22;;;;;;;;;;5136406;27;20453;-79
2023/10/06 06:38:04;;;;;;;16.35;7.47;;;;;;;;;;5137020;27;20050;-80
2023/10/06 06:40:37;;;;;;;17.70;7.03;;;;;;;;;;5137033;27;20039;-81
2023/10/06 06:43:10;;;;;;;13.15;7.25;;;;;;;;;;5136798;27;20036;-81
2023/10/06 06:45:41;;;;;;;16.02;7.95;;;;;;;;;;5136178;27;20058;-79
2023/10/06 06:48:19;;;;;;;18.38;7.15;;;;;;;;;;5137388;27;20043;-79
2023/10/06 06:50:52;;;;;;;18.20;7.20;;;;;;;;;;5136162;27;20051;-79
2023/10/06 06:53:23;;;;;;;21.85;7.43;;;;;;;;;;5136175;27;20406;-78
2023/10/06 06:55:55;;;;;;;;;;;;;;;;;;5137265;27;20373;-79
2023/10/06 06:58:26;;;;;;;16.77;7.35;;;;;;;;;;5117483;27;20308;-82
2023/10/06 07:00:56;;;;;;;26.42;7.35;;;;;;;;;;5136325;27;20050;-79
2023/10/06 07:03:26;;;;;;;21.92;6.93;;;;;;;;;;5136248;27;20054;-79
2023/10/06 07:05:56;;;;;;;18.17;8.38;;;;;;;;;;5135961;27;20039;-79
2023/10/06 07:08:27;;;;;;;19.50;8.05;;;;;;;;;;5134756;27;20481;-79
2023/10/06 07:10:57;;;;;;;14.65;7.28;;;;;;;;;;5136365;27;20040;-79
2023/10/06 07:13:28;;;;;;;19.50;7.38;;;;;;;;;;5135950;27;20039;-79
2023/10/06 07:15:59;;;;;;;21.67;9.05;;;;;;;;;;5136109;27;20043;-82
2023/10/06 07:18:30;;;;;;;18.20;7.43;;;;;;;;;;5136265;27;20047;-79
2023/10/06 07:21:10;;;;;;;20.20;7.97;;;;;;;;;;5135655;27;20046;-82
2023/10/06 07:23:42;;;;;;;29.98;8.00;;;;;;;;;;5136125;27;20050;-79
2023/10/06 07:26:13;;;;;;;17.33;7.28;;;;;;;;;;5136147;27;20055;-84
2023/10/06 07:28:50;;;;;;;18.10;7.90;;;;;;;;;;5134403;27;20054;-80
2023/10/06 07:31:24;;;;;;;16.75;7.57;;;;;;;;;;5134807;27;20547;-82
2023/10/06 07:33:57;;;;;;;18.33;7.88;;;;;;;;;;5135345;27;20469;-79
2023/10/06 07:36:27;;;;;;;14.52;7.65;;;;;;;;;;5133857;27;20051;-79
2023/10/06 07:38:58;;;;;;;19.38;8.63;;;;;;;;;;5135641;27;20039;-79
2023/10/06 07:41:28;;;;;;;18.48;7.60;;;;;;;;;;5135216;27;20047;-80
2023/10/06 07:43:58;;;;;;;12.80;7.45;;;;;;;;;;5135156;27;20050;-79
2023/10/06 07:46:30;;;;;;;19.08;7.63;;;;;;;;;;5135342;27;20050;-84
2023/10/06 07:49:01;;;;;;;14.65;7.47;;;;;;;;;;5135228;27;20039;-81
2023/10/06 07:51:33;;;;;;;15.98;7.30;;;;;;;;;;5135303;27;20047;-83
2023/10/06 07:54:03;;;;;;;13.85;7.22;;;;;;;;;;5134981;27;20050;-80
2023/10/06 07:56:39;;;;;;;14.73;7.63;;;;;;;;;;5134829;27;20039;-84
2023/10/06 07:59:11;;;;;;;20.98;6.78;;;;;;;;;;5042502;27;20052;-79
2023/10/06 08:01:42;;;;;;;17.75;6.90;;;;;;;;;;5030109;28;20510;-78
2023/10/06 08:04:13;;;;;;;18.83;7.82;;;;;;;;;;5030795;28;20053;-79
2023/10/06 08:06:45;;;;;;;20.30;7.88;;;;;;;;;;5030946;28;20053;-79
2023/10/06 08:09:17;;;;;;;17.45;8.23;;;;;;;;;;5029822;28;20395;-81
2023/10/06 08:11:48;;;;;;;17.58;7.65;;;;;;;;;;5029791;28;20391;-80
2023/10/06 08:14:20;;;;;;;17.88;7.50;;;;;;;;;;5030789;28;20050;-80
2023/10/06 08:16:50;;;;;;;20.77;7.75;;;;;;;;;;5030992;28;20057;-83
2023/10/06 08:19:20;;;;;;;23.50;9.43;;;;;;;;;;5030479;28;20045;-79
2023/10/06 08:21:50;;;;;;;17.40;8.27;;;;;;;;;;5030289;28;20046;-83
2023/10/06 08:24:20;;;;;;;21.95;7.55;;;;;;;;;;5030356;28;20498;-79
2023/10/06 08:26:52;;;;;;;15.70;7.80;;;;;;;;;;5029086;28;20053;-80
2023/10/06 08:29:23;;;;;;;17.85;7.75;;;;;;;;;;5030643;28;20053;-80
2023/10/06 08:31:54;;;;;;;17.45;7.75;;;;;;;;;;5030371;28;20072;-83
2023/10/06 08:34:25;;;;;;;13.85;7.57;;;;;;;;;;5030650;28;20041;-80
2023/10/06 08:36:55;;;;;;;18.52;8.23;;;;;;;;;;5030571;28;20046;-84
2023/10/06 08:39:38;;;;;;;21.00;7.03;;;;;;;;;;5030390;28;20038;-79
2023/10/06 08:42:15;;;;;;;20.05;7.10;;;;;;;;;;5030237;28;20396;-79
2023/10/06 08:44:46;;;;;;;19.88;8.05;;;;;;;;;;5030557;28;20049;-78
2023/10/06 08:47:18;;;;;;;22.42;8.00;;;;;;;;;;5030364;28;20498;-79
2023/10/06 08:50:00;;;;;;;17.83;7.60;;;;;;;;;;5030758;28;20045;-78
2023/10/06 08:52:32;;;;;;;20.67;7.97;;;;;;;;;;5030715;28;20048;-81
2023/10/06 08:55:06;;;;;;;17.95;7.72;;;;;;;;;;5030472;28;20053;-81
2023/10/06 08:57:41;;;;;;;17.73;7.55;;;;;;;;;;5030312;28;20037;-80
2023/10/06 09:00:35;;;;;;;16.35;7.75;;;;;;;;;;5030150;28;20041;-78
2023/10/06 09:03:08;;;;;;;24.73;9.55;;;;;;;;;;5030384;28;20491;-78
2023/10/06 09:05:43;;;;;;;21.13;10.23;;;;;;;;;;5030431;28;20041;-78
2023/10/06 09:08:14;;;;;;;22.63;10.40;;;;;;;;;;5030482;28;20053;-79
2023/10/06 09:10:54;;;;;;;30.05;10.30;;;;;;;;;;5029601;28;20045;-80
2023/10/06 09:13:28;;;;;;;28.70;12.38;;;;;;;;;;5031853;28;20056;-81
2023/10/06 09:16:03;;;;;;;27.42;12.68;;;;;;;;;;5033177;28;20391;-81
2023/10/06 09:18:38;;;;;;;31.38;12.80;;;;;;;;;;5033522;28;20033;-79
2023/10/06 09:21:13;;;;;;;28.08;12.68;;;;;;;;;;5033048;28;20045;-80
2023/10/06 09:23:43;;;;;;;21.45;10.45;;;;;;;;;;5033506;28;20041;-83
2023/10/06 09:26:26;;;;;;;21.58;9.88;;;;;;;;;;5032674;28;20042;-79
2023/10/06 09:28:59;;;;;;;18.65;8.85;;;;;;;;;;5031390;28;20053;-82
2023/10/06 09:31:44;;;;;;;20.33;8.32;;;;;;;;;;5033500;28;20046;-79
2023/10/06 09:34:25;;;;;;;20.50;8.32;;;;;;;;;;5032967;28;20051;-81
2023/10/06 09:36:55;;;;;;;25.95;8.85;;;;;;;;;;5033753;28;20101;-80
2023/10/06 09:39:33;;;;;;;22.63;8.40;;;;;;;;;;5033262;28;20482;-84
2023/10/06 09:42:05;;;;;;;27.65;11.20;;;;;;;;;;5033763;28;20045;-79
2023/10/06 09:44:38;;;;;;;21.88;11.27;;;;;;;;;;5013223;28;20042;-80
2023/10/06 09:47:11;;;;;;;27.00;10.57;;;;;;;;;;5053433;27;20045;-79
2023/10/06 09:49:41;;;;;;;25.30;10.68;;;;;;;;;;5039742;28;20499;-79
2023/10/06 09:52:12;;;;;;;24.95;11.82;;;;;;;;;;5084992;27;20048;-80
2023/10/06 09:54:43;;;;;;;25.17;9.93;;;;;;;;;;5075836;27;20480;-80
2023/10/06 09:57:14;;;;;;;18.83;8.65;;;;;;;;;;5094527;27;20041;-83
2023/10/06 09:59:44;;;;;;;20.67;9.18;;;;;;;;;;5049225;27;20046;-82
2023/10/06 10:02:20;;;;;;;27.35;8.63;;;;;;;;;;5059082;27;20048;-79
2023/10/06 10:04:54;;;;;;;16.92;7.68;;;;;;;;;;5070139;27;20499;-82
2023/10/06 10:07:24;;;;;;;16.55;8.32;;;;;;;;;;5101227;27;20050;-82
2023/10/06 10:09:55;;;;;;;17.85;7.97;;;;;;;;;;5137068;27;20058;-79
2023/10/06 10:13:00;;;;;;;20.00;8.43;;;;;;;;;;5137729;27;20043;-79
2023/10/06 10:15:42;;;;;;;20.55;9.02;;;;;;;;;;5137114;27;20167;-79
2023/10/06 10:18:39;;;;;;;25.73;8.77;;;;;;;;;;5137489;27;20051;-83
2023/10/06 10:21:11;;;;;;;17.73;8.30;;;;;;;;;;5136472;27;20051;-83
2023/10/06 10:23:44;;;;;;;17.90;8.00;;;;;;;;;;5136094;27;20472;-83
2023/10/06 10:26:27;;;;;;;23.50;9.10;;;;;;;;;;5136105;27;20102;-82
2023/10/06 10:29:13;;;;;;;18.65;8.68;;;;;;;;;;5137190;27;20043;-79
2023/10/06 10:31:46;;;;;;;22.02;8.07;;;;;;;;;;5137004;27;20500;-81
2023/10/06 10:34:54;;;;;;;19.30;7.95;;;;;;;;;;5136665;27;20424;-79
2023/10/06 10:37:28;;;;;;;23.33;7.72;;;;;;;;;;5136833;27;20062;-81
2023/10/06 10:39:59;;;;;;;25.45;11.38;;;;;;;;;;5136920;27;20394;-82
2023/10/06 10:42:40;;;;;;;29.52;12.90;;;;;;;;;;5136541;27;20039;-80
2023/10/06 10:45:31;;;;;;;40.22;16.95;;;;;;;;;;5135277;27;20043;-79
2023/10/06 10:48:05;;;;;;;19.50;10.88;;;;;;;;;;5121079;27;20047;-79
2023/10/06 10:51:05;;;;;;;27.48;13.57;;;;;;;;;;5112037;27;20034;-82
2023/10/06 10:53:44;;;;;;;26.23;12.63;;;;;;;;;;5027326;28;20053;-79
2023/10/06 10:56:43;;;;;;;17.10;9.52;;;;;;;;;;5027795;28;20395;-83
2023/10/06 10:59:16;;;;;;;15.02;8.35;;;;;;;;;;5027370;28;20045;-79
2023/10/06 11:01:51;;;;;;;23.73;8.93;;;;;;;;;;5027562;28;20042;-80
2023/10/06 11:04:35;;;;;;;27.60;8.98;;;;;;;;;;5012034;28;20503;-81
2023/10/06 11:07:18;;;;;;;23.55;9.57;;;;;;;;;;5028704;28;20120;-83
2023/10/06 11:09:48;;;;;;;17.40;7.72;;;;;;;;;;5025926;28;20056;-82
2023/10/06 11:12:21;;;;;;;17.27;8.15;;;;;;;;;;5029656;28;20052;-80
2023/10/06 11:15:02;;;;;;;18.33;8.68;;;;;;;;;;5027871;28;20061;-82
2023/10/06 11:17:33;;;;;;;17.27;8.70;;;;;;;;;;5029708;28;20045;-80
2023/10/06 11:20:12;;;;;;;16.73;7.70;;;;;;;;;;5030195;28;20045;-80
2023/10/06 11:22:59;;;;;;;17.13;8.70;;;;;;;;;;5026771;28;20061;-83
2023/10/06 11:25:32;;;;;;;23.90;8.68;;;;;;;;;;5010167;28;20088;-79
2023/10/06 11:28:08;;;;;;;16.02;7.82;;;;;;;;;;5009674;28;20042;-80
2023/10/06 11:30:40;;;;;;;21.13;8.15;;;;;;;;;;5010186;28;20519;-80
2023/10/06 11:33:14;;;;;;;18.30;8.70;;;;;;;;;;5009932;28;20050;-79
2023/10/06 11:35:45;;;;;;;15.13;8.77;;;;;;;;;;5009013;28;20057;-80
2023/10/06 11:38:16;;;;;;;17.50;8.95;;;;;;;;;;5007578;28;20052;-80
2023/10/06 11:40:46;;;;;;;11.30;7.03;;;;;;;;;;5009257;28;20057;-84
2023/10/06 11:43:18;;;;;;;19.05;7.60;;;;;;;;;;5009435;28;20050;-80
2023/10/06 11:46:07;;;;;;;15.75;6.80;;;;;;;;;;5018753;28;20122;-81
2023/10/06 11:48:38;;;;;;;15.27;8.32;;;;;;;;;;5028988;28;20050;-82
2023/10/06 11:51:12;;;;;;;14.80;8.10;;;;;;;;;;5028734;28;20068;-79
2023/10/06 11:53:44;;;;;;;22.70;8.15;;;;;;;;;;5028042;28;20041;-82
2023/10/06 11:56:15;;;;;;;17.42;8.77;;;;;;;;;;5028286;28;20057;-79
2023/10/06 11:58:47;;;;;;;33.35;15.52;;;;;;;;;;5026162;28;20049;-80
2023/10/06 12:01:36;;;;;;;22.30;11.65;;;;;;;;;;5028090;28;20419;-79
2023/10/06 12:04:30;;;;;;;24.65;12.63;;;;;;;;;;5026290;28;20041;-80
2023/10/06 12:07:00;;;;;;;24.67;12.55;;;;;;;;;;5025362;28;20890;-80
2023/10/06 12:09:33;;;;;;;24.65;11.00;;;;;;;;;;5028639;28;20502;-82
2023/10/06 12:12:04;;;;;;;19.67;9.40;;;;;;;;;;5026250;28;20050;-80
2023/10/06 12:14:36;;;;;;;18.15;8.93;;;;;;;;;;5029761;28;20042;-81
2023/10/06 12:17:06;;;;;;;16.80;9.10;;;;;;;;;;5027936;28;20506;-80
2023/10/06 12:19:37;;;;;;;20.50;8.75;;;;;;;;;;5027737;28;20042;-80
2023/10/06 12:22:07;;;;;;;12.32;6.60;;;;;;;;;;5029863;28;20045;-79
2023/10/06 12:24:42;;;;;;;13.77;7.78;;;;;;;;;;5027540;28;20060;-79
2023/10/06 12:27:17;;;;;;;19.10;9.60;;;;;;;;;;5028005;28;20034;-81
2023/10/06 12:29:48;;;;;;;17.88;10.23;;;;;;;;;;5068659;27;20059;-80
2023/10/06 12:32:18;;;;;;;18.92;9.85;;;;;;;;;;5032596;28;20041;-80
2023/10/06 12:34:48;;;;;;;19.42;9.20;;;;;;;;;;5029602;28;20064;-81
2023/10/06 12:37:19;;;;;;;15.23;9.02;;;;;;;;;;5029068;28;20090;-84
2023/10/06 12:39:50;;;;;;;21.83;9.43;;;;;;;;;;5029292;28;20499;-80
2023/10/06 12:42:21;;;;;;;23.58;10.88;;;;;;;;;;5029638;28;20056;-80
2023/10/06 12:44:51;;;;;;;15.68;9.20;;;;;;;;;;5027437;28;20049;-79
2023/10/06 12:47:22;;;;;;;16.73;9.68;;;;;;;;;;5028682;28;20400;-82
2023/10/06 12:49:53;;;;;;;16.58;9.63;;;;;;;;;;5027949;28;20045;-80
2023/10/06 12:52:23;;;;;;;18.50;9.80;;;;;;;;;;5028427;28;20060;-82
2023/10/06 12:54:54;;;;;;;21.05;9.75;;;;;;;;;;5029758;28;20046;-81
2023/10/06 12:57:25;;;;;;;20.67;10.68;;;;;;;;;;5080825;27;20072;-79
2023/10/06 12:59:57;;;;;;;18.10;10.45;;;;;;;;;;5133321;27;20413;-82
2023/10/06 13:02:32;;;;;;;22.02;11.10;;;;;;;;;;5133251;28;20039;-79
2023/10/06 13:05:13;;;;;;;13.65;9.02;;;;;;;;;;5133768;27;20039;-83
2023/10/06 13:07:46;;;;;;;16.95;9.45;;;;;;;;;;5133805;27;20051;-83
2023/10/06 13:10:22;;;;;;;18.75;9.93;;;;;;;;;;5029101;27;20046;-80
2023/10/06 13:12:52;;;;;;;18.73;10.23;;;;;;;;;;5007566;28;20057;-80
2023/10/06 13:15:22;;;;;;;22.38;10.93;;;;;;;;;;5025916;28;20492;-83
2023/10/06 13:17:54;;;;;;;19.98;10.98;;;;;;;;;;5045629;28;20064;-81
2023/10/06 13:20:24;;;;;;;;;;;;;;;;;;5048154;28;20059;-83
2023/10/06 13:22:54;;;;;;;18.65;10.18;;;;;;;;;;5047342;28;19920;-80
2023/10/06 13:25:27;;;;;;;22.38;11.35;;;;;;;;;;5046124;28;20041;-82
2023/10/06 13:27:58;;;;;;;19.33;10.32;;;;;;;;;;5047070;28;20061;-80
2023/10/06 13:30:32;;;;;;;19.92;9.40;;;;;;;;;;5047453;28;20041;-80
2023/10/06 13:33:03;;;;;;;18.63;9.10;;;;;;;;;;5045309;28;20072;-80
2023/10/06 13:35:34;;;;;;;18.17;9.20;;;;;;;;;;5047296;28;20514;-80
2023/10/06 13:38:09;;;;;;;16.45;11.07;;;;;;;;;;5044767;28;20045;-80
2023/10/06 13:40:42;;;;;;;25.70;10.57;;;;;;;;;;5047266;28;20048;-79
2023/10/06 13:43:13;;;;;;;19.23;10.73;;;;;;;;;;5047154;28;20099;-79
2023/10/06 13:45:43;;;;;;;18.05;10.25;;;;;;;;;;5065044;28;20043;-82
2023/10/06 13:48:15;;;;;;;22.60;10.98;;;;;;;;;;5131346;28;20483;-83
2023/10/06 13:50:46;;;;;;;16.88;9.70;;;;;;;;;;5130656;28;20061;-79
2023/10/06 13:53:16;;;;;;;18.75;10.10;;;;;;;;;;5130208;27;20043;-79
2023/10/06 13:55:46;;;;;;;18.73;10.23;;;;;;;;;;5130824;27;20055;-78
2023/10/06 13:58:16;;;;;;;17.52;10.10;;;;;;;;;;5027565;28;20046;-81
2023/10/06 14:00:47;;;;;;;23.98;10.85;;;;;;;;;;5030291;28;20127;-79
2023/10/06 14:03:19;;;;;;;20.40;10.10;;;;;;;;;;5032443;28;20050;-79
2023/10/06 14:05:55;;;;;;;19.40;10.07;;;;;;;;;;5032106;28;20050;-82
2023/10/06 14:08:27;;;;;;;23.15;12.32;;;;;;;;;;5031087;28;20045;-81
2023/10/06 14:10:57;;;;;;;21.88;11.43;;;;;;;;;;5032099;28;20042;-80
2023/10/06 14:13:28;;;;;;;20.58;11.35;;;;;;;;;;5031500;28;20050;-83
2023/10/06 14:18:32;;;;;;;20.33;12.00;;;;;;;;;;5031803;28;20415;-80
2023/10/06 14:21:05;;;;;;;22.63;10.70;;;;;;;;;;5031958;28;20053;-79
2023/10/06 14:23:41;;;;;;;21.23;10.60;;;;;;;;;;5031918;28;20492;-80
2023/10/06 14:26:13;;;;;;;20.10;10.60;;;;;;;;;;5031688;28;20038;-80
2023/10/06 14:28:44;;;;;;;22.35;11.50;;;;;;;;;;5031948;28;20400;-80
2023/10/06 14:31:58;;;;;;;23.70;11.75;;;;;;;;;;5032217;28;20045;-78
2023/10/06 14:37:01;;;;;;;28.60;12.32;;;;;;;;;;5009882;28;20045;-79
2023/10/06 14:47:57;;;;;;;18.48;10.82;;;;;;;;;;5031800;28;20046;-79
2023/10/06 14:50:34;;;;;;;18.85;10.73;;;;;;;;;;5031861;28;20054;-80
2023/10/06 14:53:04;;;;;;;21.63;9.68;;;;;;;;;;5016520;27;20050;-80
2023/10/06 14:55:38;;;;;;;22.55;10.18;;;;;;;;;;5010347;28;20507;-79
2023/10/06 14:58:12;;;;;;;16.00;9.43;;;;;;;;;;5033694;28;20060;-80
2023/10/06 15:00:43;;;;;;;17.52;9.48;;;;;;;;;;5046933;28;20041;-79
2023/10/06 15:03:19;;;;;;;19.92;9.43;;;;;;;;;;5029231;28;20053;-80
2023/10/06 15:05:49;;;;;;;19.75;9.50;;;;;;;;;;5029042;28;20041;-82
2023/10/06 15:08:19;;;;;;;18.25;8.57;;;;;;;;;;5029685;28;20045;-83
2023/10/06 15:10:59;;;;;;;18.95;8.32;;;;;;;;;;5030654;28;20045;-82
2023/10/06 15:13:36;;;;;;;16.88;7.45;;;;;;;;;;5031055;28;20518;-82
2023/10/06 15:16:07;;;;;;;18.00;8.93;;;;;;;;;;5030781;28;20041;-80
2023/10/06 15:18:42;;;;;;;21.92;10.23;;;;;;;;;;5030964;28;20060;-81
2023/10/06 15:21:12;;;;;;;16.50;9.25;;;;;;;;;;5031236;28;20030;-82
2023/10/06 15:23:53;;;;;;;23.92;13.10;;;;;;;;;;5031202;28;20045;-82
2023/10/06 15:26:25;;;;;;;19.65;9.85;;;;;;;;;;5030369;28;20068;-80
2023/10/06 15:28:56;;;;;;;18.08;8.90;;;;;;;;;;5030719;28;20407;-79
2023/10/06 15:31:28;;;;;;;13.60;7.43;;;;;;;;;;5030446;28;20045;-80
2023/10/06 15:33:59;;;;;;;16.50;7.68;;;;;;;;;;5030061;28;20052;-80